Time;durP1;ratioP1;P1;durP2;ratioP2;P2;SDS_P1;SDS_P2;PMS_P1;PMS_P2;Temp;Humidity;BMP_temperature;BMP_pressure;BME280_temperature;BME280_humidity;BME280_pressure;Samples;Min_cycle;Max_cycle;Signal;HPM_P1;HPM_P2
2021/12/24 00:01:56;;;;;;;3.25;2.90;;;;;;;8.26;78.76;96097.78;5092821;28;20382;-63
2021/12/24 00:04:22;;;;;;;3.40;3.10;;;;;;;8.32;78.33;96097.69;5093181;28;20412;-63
2021/12/24 00:06:48;;;;;;;3.58;3.10;;;;;;;8.44;78.10;96091.66;5092722;28;20421;-64
2021/12/24 00:09:21;;;;;;;3.60;2.97;;;;;;;8.43;77.75;96082.22;5092831;28;20389;-63
2021/12/24 00:11:47;;;;;;;3.20;2.90;;;;;;;8.30;78.53;96075.47;5092729;28;20405;-63
2021/12/24 00:14:13;;;;;;;4.53;3.00;;;;;;;8.37;77.83;96062.25;5092829;28;20390;-64
2021/12/24 00:16:52;;;;;;;4.43;3.00;;;;;;;8.37;78.58;96072.69;5092990;28;20716;-63
2021/12/24 00:35:33;;;;;;;3.10;2.80;;;;;;;8.39;78.40;96039.34;5084956;28;20393;-63
2021/12/24 00:38:03;;;;;;;3.13;2.80;;;;;;;8.44;78.11;96058.50;5092203;28;20882;-64
2021/12/24 00:40:32;;;;;;;3.80;2.92;;;;;;;8.46;78.41;96047.84;5093183;28;20378;-63
2021/12/24 00:42:58;;;;;;;3.47;2.97;;;;;;;8.45;78.04;96044.44;5092151;28;20397;-63
2021/12/24 00:45:27;;;;;;;3.10;2.80;;;;;;;8.45;78.43;96046.25;5091086;28;20889;-63
2021/12/24 00:47:54;;;;;;;3.05;2.75;;;;;;;8.40;78.77;96044.34;5092175;28;20394;-64
2021/12/24 00:50:24;;;;;;;2.80;2.60;;;;;;;8.27;79.26;96041.94;5092116;28;20487;-63
2021/12/24 00:53:01;;;;;;;2.67;2.47;;;;;;;8.23;79.72;96032.97;5092456;28;20374;-63
2021/12/24 00:55:28;;;;;;;4.03;2.80;;;;;;;8.31;79.12;96040.47;5092564;28;20494;-63
2021/12/24 00:57:57;;;;;;;4.63;2.73;;;;;;;8.40;79.09;96027.88;5092038;28;20386;-63
2021/12/24 01:00:25;;;;;;;3.33;2.70;;;;;;;8.42;78.66;96028.41;5091704;28;20947;-63
2021/12/24 01:02:52;;;;;;;3.72;2.78;;;;;;;8.38;79.00;96030.72;5091919;28;20535;-63
2021/12/24 01:05:19;;;;;;;2.90;2.40;;;;;;;8.57;78.40;96031.34;5075385;28;20454;-63
2021/12/24 01:07:46;;;;;;;2.93;2.50;;;;;;;8.50;78.58;96026.25;5092169;28;20870;-63
2021/12/24 01:10:14;;;;;;;2.92;2.60;;;;;;;8.50;78.47;96021.03;5091640;28;20386;-63
2021/12/24 01:12:40;;;;;;;3.10;2.80;;;;;;;8.45;78.84;96026.16;5091668;28;20425;-63
2021/12/24 01:15:06;;;;;;;3.03;2.30;;;;;;;8.52;78.50;96029.44;5091922;28;20421;-62
2021/12/24 01:20:19;;;;;;;2.60;2.40;;;;;;;8.45;78.78;96033.19;5091836;28;20405;-64
2021/12/24 01:23:24;;;;;;;3.30;2.35;;;;;;;8.55;78.54;96031.56;5090991;28;20390;-63
2021/12/24 01:25:58;;;;;;;3.42;2.47;;;;;;;8.53;78.47;96038.03;5091325;28;20418;-63
2021/12/24 01:28:43;;;;;;;2.73;2.30;;;;;;;8.48;78.58;96040.56;5090896;28;20463;-63
2021/12/24 01:44:34;;;;;;;3.28;2.20;;;;;;;8.67;77.63;96034.94;5091617;28;20404;-63
2021/12/24 01:47:02;;;;;;;3.05;2.25;;;;;;;8.85;77.24;96033.19;5091375;28;20410;-62
2021/12/24 01:49:28;;;;;;;2.65;2.45;;;;;;;8.78;77.46;96028.09;5091345;28;20432;-68
2021/12/24 01:51:54;;;;;;;2.58;2.35;;;;;;;8.80;77.35;96028.66;5091216;28;20886;-63
2021/12/24 01:54:20;;;;;;;3.10;2.40;;;;;;;8.83;77.45;96032.59;5091507;28;20386;-65
2021/12/24 01:56:46;;;;;;;3.13;2.43;;;;;;;8.90;76.83;96028.03;5090531;28;20463;-62
2021/12/24 01:59:12;;;;;;;2.63;2.30;;;;;;;8.78;77.05;96030.69;5091412;28;20381;-62
2021/12/24 02:01:38;;;;;;;2.50;2.30;;;;;;;8.89;77.06;96016.78;5091394;28;20469;-64
2021/12/24 02:04:04;;;;;;;2.42;2.17;;;;;;;8.82;77.36;96012.72;5091007;28;20424;-63
2021/12/24 02:06:29;;;;;;;2.60;2.40;;;;;;;9.02;76.24;96011.28;5090711;28;20497;-62
2021/12/24 02:08:55;;;;;;;2.58;2.38;;;;;;;8.92;76.45;96005.06;5091409;28;20405;-62
2021/12/24 02:11:20;;;;;;;2.87;2.33;;;;;;;8.89;76.21;96002.94;5091058;28;20451;-62
2021/12/24 02:13:46;;;;;;;2.77;2.30;;;;;;;8.77;77.16;96005.59;5091349;28;20382;-63
2021/12/24 02:29:23;;;;;;;3.37;2.43;;;;;;;8.80;76.82;95999.13;5090786;28;20447;-63
2021/12/24 02:31:48;;;;;;;3.00;2.40;;;;;;;8.63;78.00;95986.00;5091050;28;20394;-63
2021/12/24 02:34:14;;;;;;;2.70;2.20;;;;;;;8.57;77.57;95979.91;5092915;28;20416;-65
2021/12/24 02:36:39;;;;;;;2.10;2.00;;;;;;;8.92;76.28;95979.72;5094371;28;20522;-64
2021/12/24 02:39:05;;;;;;;2.90;2.60;;;;;;;8.79;77.17;95981.84;5095113;28;20386;-65
2021/12/24 02:41:32;;;;;;;3.03;2.30;;;;;;;8.87;76.39;95977.03;5094250;28;20394;-64
2021/12/24 02:43:58;;;;;;;2.38;2.17;;;;;;;8.92;76.35;95971.88;5094034;28;20485;-65
2021/12/24 02:46:41;;;;;;;2.63;2.42;;;;;;;8.79;76.34;95969.59;5094953;28;20459;-64
2021/12/24 02:49:17;;;;;;;4.35;2.22;;;;;;;8.80;76.40;95968.56;5094105;28;20758;-65
2021/12/24 02:54:26;;;;;;;2.83;2.33;;;;;;;8.88;76.66;95960.31;5094005;28;20455;-65
2021/12/24 02:56:55;;;;;;;2.10;2.00;;;;;;;8.77;76.35;95955.94;5094072;28;20398;-67
2021/12/24 02:59:26;;;;;;;2.30;2.10;;;;;;;8.82;76.45;95963.06;5093836;28;20395;-65
2021/12/24 03:01:53;;;;;;;2.80;2.50;;;;;;;8.82;76.33;95948.19;5094069;28;20397;-64
2021/12/24 03:04:19;;;;;;;2.40;2.20;;;;;;;8.86;76.36;95949.31;5094073;28;20949;-65
2021/12/24 03:06:48;;;;;;;2.58;2.25;;;;;;;9.01;75.81;95954.00;5093500;28;20432;-65
2021/12/24 03:09:16;;;;;;;3.53;2.30;;;;;;;8.82;75.98;95947.41;5093282;28;20913;-65
2021/12/24 03:11:43;;;;;;;2.67;2.25;;;;;;;8.79;76.46;95948.69;5093970;28;20473;-65
2021/12/24 03:14:09;;;;;;;2.58;2.38;;;;;;;8.76;76.32;95949.13;5094092;28;20397;-65
2021/12/24 03:16:37;;;;;;;2.58;2.38;;;;;;;8.82;76.30;95952.63;5093839;28;20394;-64
2021/12/24 03:19:03;;;;;;;2.63;2.30;;;;;;;8.93;75.68;95951.75;5093278;28;20451;-65
2021/12/24 03:21:38;;;;;;;3.90;2.53;;;;;;;8.87;75.73;95952.72;5093983;28;20390;-65
2021/12/24 03:26:31;;;;;;;2.87;2.47;;;;;;;8.84;75.73;95940.94;5093950;28;20413;-64
2021/12/24 03:28:56;;;;;;;2.67;2.45;;;;;;;8.77;75.72;95932.44;5093468;28;20472;-68
2021/12/24 03:31:21;;;;;;;2.63;2.23;;;;;;;8.86;75.58;95932.84;5085651;28;20530;-66
2021/12/24 03:33:48;;;;;;;2.37;2.17;;;;;;;8.82;75.45;95934.34;5092505;28;20804;-65
2021/12/24 03:36:15;;;;;;;2.38;2.17;;;;;;;8.94;75.22;95930.63;5093767;28;20417;-65
2021/12/24 03:38:40;;;;;;;2.42;2.20;;;;;;;8.91;75.09;95927.72;5093413;28;20417;-65
2021/12/24 03:41:06;;;;;;;3.63;2.47;;;;;;;8.81;75.74;95925.69;5093647;28;20382;-64
2021/12/24 03:43:32;;;;;;;2.43;2.23;;;;;;;8.90;75.19;95918.28;5093475;28;20980;-64
2021/12/24 03:46:02;;;;;;;3.17;2.20;;;;;;;8.94;74.97;95916.78;5092262;28;20768;-65
2021/12/24 03:48:54;;;;;;;2.55;2.17;;;;;;;8.77;75.17;95917.56;5093349;28;20386;-65
2021/12/24 03:56:37;;;;;;;2.45;2.25;;;;;;;8.69;75.87;95912.69;5093050;28;20463;-65
2021/12/24 03:59:04;;;;;;;2.30;2.20;;;;;;;8.59;76.06;95909.94;5092587;28;20481;-65
2021/12/24 04:01:30;;;;;;;2.72;2.30;;;;;;;8.58;76.64;95905.72;5092671;28;20526;-69
2021/12/24 04:03:55;;;;;;;3.47;2.50;;;;;;;8.60;77.18;95906.28;5092444;28;20829;-72
2021/12/24 04:06:21;;;;;;;2.50;2.30;;;;;;;8.43;77.43;95899.44;5092756;28;20990;-64
2021/12/24 04:08:46;;;;;;;2.40;2.20;;;;;;;8.57;77.21;95904.16;5092766;28;20751;-65
2021/12/24 04:11:12;;;;;;;2.10;1.90;;;;;;;8.54;76.99;95902.00;5092396;28;20505;-65
2021/12/24 04:13:38;;;;;;;2.30;2.10;;;;;;;8.50;77.10;95902.72;5093182;28;20390;-65
2021/12/24 04:16:04;;;;;;;2.53;2.33;;;;;;;8.53;77.22;95904.84;5092215;28;20867;-65
2021/12/24 04:26:42;;;;;;;2.20;2.00;;;;;;;8.40;77.79;95892.91;5092441;28;20468;-65
2021/12/24 04:29:08;;;;;;;3.07;2.17;;;;;;;8.47;77.32;95898.75;5092302;28;20410;-65
2021/12/24 04:31:55;;;;;;;2.50;2.30;;;;;;;8.54;76.82;95898.59;5092437;28;20393;-64
2021/12/24 04:34:25;;;;;;;2.40;2.20;;;;;;;8.52;77.10;95893.63;5092213;28;20447;-64
2021/12/24 04:51:11;;;;;;;2.40;2.20;;;;;;;8.55;77.27;95890.53;5092193;28;20793;-64
2021/12/24 05:04:15;;;;;;;2.83;2.40;;;;;;;8.50;77.34;95877.41;5091712;28;20409;-68
2021/12/24 05:06:51;;;;;;;3.10;2.42;;;;;;;8.54;77.11;95875.88;5092314;28;20460;-65
2021/12/24 05:09:22;;;;;;;2.50;2.30;;;;;;;8.53;77.59;95881.34;5091688;28;20389;-64
2021/12/24 05:11:47;;;;;;;2.30;2.10;;;;;;;8.40;77.84;95882.44;5091700;28;20397;-64
2021/12/24 05:14:15;;;;;;;2.33;2.13;;;;;;;8.48;78.14;95884.66;5091938;28;20386;-64
2021/12/24 05:16:53;;;;;;;3.33;2.35;;;;;;;8.16;79.24;95886.94;5091480;28;20443;-65
2021/12/24 05:22:02;;;;;;;2.40;2.20;;;;;;;8.58;78.31;95879.59;5091365;28;20420;-64
2021/12/24 05:24:30;;;;;;;2.50;2.30;;;;;;;8.55;78.17;95880.09;5091659;28;20398;-64
2021/12/24 05:27:00;;;;;;;2.53;2.33;;;;;;;8.56;78.29;95889.50;5091484;28;20424;-65
2021/12/24 05:29:26;;;;;;;3.20;2.30;;;;;;;8.65;78.56;95877.63;5091606;28;20401;-65
2021/12/24 05:31:52;;;;;;;2.70;2.50;;;;;;;8.66;77.80;95875.81;5091235;28;20799;-64
2021/12/24 05:34:18;;;;;;;2.47;2.27;;;;;;;8.64;78.09;95875.25;5091521;28;20469;-64
2021/12/24 05:36:48;;;;;;;2.60;2.33;;;;;;;8.62;78.38;95867.69;5091543;28;20478;-65
2021/12/24 05:39:16;;;;;;;2.42;2.25;;;;;;;8.65;78.53;95872.41;5091753;28;20405;-64
2021/12/24 05:41:42;;;;;;;3.60;2.70;;;;;;;8.65;78.92;95871.63;5091417;28;20390;-65
2021/12/24 05:44:10;;;;;;;2.33;2.13;;;;;;;8.75;78.31;95867.34;5091587;28;20403;-65
2021/12/24 05:46:36;;;;;;;2.65;2.38;;;;;;;8.69;78.65;95864.91;5091798;28;20497;-64
2021/12/24 05:49:02;;;;;;;2.58;2.35;;;;;;;8.74;78.29;95871.00;5091534;28;20397;-66
2021/12/24 05:51:28;;;;;;;2.50;2.30;;;;;;;8.69;78.82;95867.53;5091446;28;20443;-65
2021/12/24 05:53:53;;;;;;;2.83;2.35;;;;;;;8.68;78.83;95869.34;5091138;28;20472;-66
2021/12/24 05:56:19;;;;;;;2.70;2.50;;;;;;;8.72;78.49;95869.66;5091292;28;20402;-65
2021/12/24 05:58:44;;;;;;;2.83;2.60;;;;;;;8.91;78.70;95878.06;5091051;28;20395;-65
2021/12/24 06:01:10;;;;;;;2.53;2.30;;;;;;;8.85;78.29;95877.19;5090277;28;20397;-65
2021/12/24 06:03:35;;;;;;;2.47;2.28;;;;;;;8.79;78.91;95875.53;5091416;28;20393;-64
2021/12/24 06:06:01;;;;;;;3.27;2.63;;;;;;;8.81;78.70;95878.66;5091207;28;20418;-64
2021/12/24 06:08:26;;;;;;;2.60;2.40;;;;;;;8.69;79.07;95870.91;5091846;28;20814;-64
2021/12/24 06:10:52;;;;;;;2.93;2.63;;;;;;;8.88;78.11;95884.53;5095062;28;20413;-64
2021/12/24 06:13:17;;;;;;;2.47;2.27;;;;;;;8.62;79.57;95885.16;5095426;28;20390;-64
2021/12/24 06:15:45;;;;;;;2.73;2.53;;;;;;;8.68;79.38;95889.44;5095388;28;20399;-64
2021/12/24 06:18:20;;;;;;;2.58;2.38;;;;;;;8.74;79.30;95891.13;5095195;28;20386;-64
2021/12/24 06:20:46;;;;;;;2.70;2.50;;;;;;;8.82;79.34;95893.31;5095177;28;20858;-64
2021/12/24 06:23:12;;;;;;;3.25;2.40;;;;;;;8.67;79.53;95900.94;5094197;28;20892;-64
2021/12/24 06:25:38;;;;;;;2.63;2.42;;;;;;;8.81;79.26;95896.16;5095028;28;20410;-64
2021/12/24 06:28:03;;;;;;;2.73;2.40;;;;;;;8.69;79.16;95897.03;5095041;28;20392;-64
2021/12/24 06:30:29;;;;;;;2.75;2.42;;;;;;;8.75;78.95;95898.69;5093501;28;20959;-64
2021/12/24 06:32:59;;;;;;;3.05;2.67;;;;;;;8.77;79.15;95890.63;5094624;28;20396;-65
2021/12/24 06:35:26;;;;;;;3.15;2.40;;;;;;;8.73;79.73;95881.69;5094576;28;20405;-64
2021/12/24 06:37:52;;;;;;;2.95;2.60;;;;;;;8.68;79.56;95892.84;5093787;28;20917;-65
2021/12/24 06:40:18;;;;;;;3.03;2.37;;;;;;;8.69;79.49;95893.66;5094610;28;20503;-65
2021/12/24 06:42:44;;;;;;;3.60;2.70;;;;;;;8.72;79.68;95880.91;5095007;28;20448;-64
2021/12/24 06:45:10;;;;;;;3.53;2.67;;;;;;;8.71;79.80;95886.34;5093957;28;20390;-64
2021/12/24 06:47:36;;;;;;;2.60;2.40;;;;;;;8.71;80.14;95887.16;5094560;28;20382;-64
2021/12/24 06:50:03;;;;;;;3.35;2.50;;;;;;;8.76;79.77;95891.66;5094494;28;20394;-64
2021/12/24 06:52:28;;;;;;;2.60;2.40;;;;;;;8.65;80.29;95892.53;5093962;28;20754;-65
2021/12/24 06:54:55;;;;;;;2.90;2.63;;;;;;;8.68;80.35;95897.28;5094369;28;20405;-64
2021/12/24 06:57:22;;;;;;;4.63;2.58;;;;;;;8.68;80.86;95892.84;5094644;28;20428;-65
2021/12/24 06:59:47;;;;;;;3.20;2.60;;;;;;;8.73;80.91;95892.94;5094041;28;20481;-64
2021/12/24 07:02:14;;;;;;;2.90;2.67;;;;;;;8.84;79.86;95893.09;5093748;28;20477;-64
2021/12/24 07:04:39;;;;;;;3.10;2.53;;;;;;;8.87;80.14;95887.38;5094342;28;20381;-64
2021/12/24 07:07:05;;;;;;;3.67;2.70;;;;;;;8.91;79.56;95891.13;5094586;28;20888;-64
2021/12/24 07:09:30;;;;;;;3.90;2.70;;;;;;;8.80;80.39;95889.38;5094110;28;20421;-64
2021/12/24 07:11:55;;;;;;;3.37;2.80;;;;;;;8.86;80.56;95888.44;5093994;28;20500;-66
2021/12/24 07:14:23;;;;;;;3.27;2.70;;;;;;;8.80;80.63;95897.22;5093976;28;20746;-65
2021/12/24 07:16:48;;;;;;;2.92;2.70;;;;;;;8.81;80.64;95889.13;5093758;28;20524;-64
2021/12/24 07:19:14;;;;;;;3.03;2.80;;;;;;;8.72;81.12;95908.84;5093904;28;20840;-64
2021/12/24 07:21:41;;;;;;;3.23;2.90;;;;;;;8.83;80.60;95901.97;5093933;28;20390;-64
2021/12/24 07:24:07;;;;;;;2.90;2.55;;;;;;;8.73;81.55;95905.22;5093944;28;20437;-64
2021/12/24 07:26:33;;;;;;;2.73;2.53;;;;;;;8.69;82.32;95901.50;5093752;28;20438;-65
2021/12/24 07:28:58;;;;;;;3.77;2.70;;;;;;;8.63;82.85;95902.44;5092184;28;20863;-65
2021/12/24 07:31:24;;;;;;;3.65;2.85;;;;;;;8.62;84.44;95896.41;5093650;28;20436;-65
2021/12/24 07:33:49;;;;;;;5.17;3.00;;;;;;;8.50;85.12;95887.84;5093592;28;20477;-64
2021/12/24 07:36:15;;;;;;;3.08;2.78;;;;;;;8.58;85.45;95892.66;5093198;28;20489;-65
2021/12/24 07:38:40;;;;;;;3.17;2.87;;;;;;;8.45;85.76;95885.16;5093841;28;20418;-65
2021/12/24 07:41:06;;;;;;;2.80;2.60;;;;;;;8.50;85.59;95881.81;5093398;28;20432;-65
2021/12/24 07:43:31;;;;;;;3.20;2.87;;;;;;;8.50;85.65;95881.81;5093119;28;20382;-66
2021/12/24 07:45:57;;;;;;;2.72;2.42;;;;;;;8.49;85.46;95878.41;5093495;28;20413;-65
2021/12/24 07:48:31;;;;;;;4.07;2.50;;;;;;;8.51;90.60;95879.00;5094031;28;20390;-69
2021/12/24 07:53:24;;;;;;;2.80;2.40;;;;;;;8.57;84.73;95869.41;5093280;28;20389;-68
2021/12/24 07:55:51;;;;;;;2.90;2.70;;;;;;;8.31;86.56;95866.34;5093215;28;20413;-70
2021/12/24 07:58:18;;;;;;;4.93;3.00;;;;;;;8.57;85.47;95866.81;5092446;28;20393;-68
2021/12/24 08:00:45;;;;;;;3.88;2.85;;;;;;;8.67;84.58;95880.81;5092209;28;20390;-68
2021/12/24 08:03:11;;;;;;;3.25;2.95;;;;;;;8.60;84.51;95880.16;5093351;28;20386;-68
2021/12/24 08:05:39;;;;;;;3.17;2.75;;;;;;;8.56;84.50;95886.91;5091681;28;20826;-65
2021/12/24 08:08:06;;;;;;;4.05;3.00;;;;;;;8.69;83.71;95888.44;5092677;28;20390;-65
2021/12/24 08:10:33;;;;;;;3.20;2.90;;;;;;;8.41;85.57;95886.66;5092130;28;20465;-66
2021/12/24 08:12:59;;;;;;;3.30;3.00;;;;;;;8.45;85.27;95884.34;5092805;28;20428;-66
2021/12/24 08:15:25;;;;;;;3.40;3.10;;;;;;;8.47;85.16;95890.16;5093047;28;20429;-68
2021/12/24 08:17:51;;;;;;;4.37;2.90;;;;;;;8.57;84.26;95887.69;5092883;28;20394;-66
2021/12/24 08:20:22;;;;;;;3.05;2.83;;;;;;;8.50;84.83;95887.84;5092269;28;20421;-66
2021/12/24 08:22:50;;;;;;;3.10;2.90;;;;;;;8.56;84.85;95892.13;5092574;28;20397;-67
2021/12/24 08:25:16;;;;;;;3.10;2.80;;;;;;;8.56;84.53;95888.72;5091950;28;20792;-67
2021/12/24 08:27:42;;;;;;;3.83;2.95;;;;;;;8.59;84.62;95883.00;5092756;28;20390;-65
2021/12/24 08:30:08;;;;;;;3.20;2.90;;;;;;;8.60;84.15;95884.59;5092210;28;20386;-65
2021/12/24 08:32:39;;;;;;;3.85;2.92;;;;;;;8.65;84.41;95887.28;5092378;28;20538;-65
2021/12/24 08:35:07;;;;;;;3.33;3.03;;;;;;;8.78;83.44;95884.38;5092780;28;20874;-64
2021/12/24 08:37:32;;;;;;;3.90;2.90;;;;;;;8.59;84.45;95875.97;5092131;28;20418;-65
2021/12/24 08:39:57;;;;;;;4.20;2.87;;;;;;;8.77;84.10;95870.53;5090484;28;20448;-70
2021/12/24 08:42:23;;;;;;;3.22;3.00;;;;;;;8.75;83.94;95880.41;5092045;28;20450;-66
2021/12/24 08:44:48;;;;;;;3.00;2.70;;;;;;;8.78;84.08;95881.78;5092394;28;20382;-67
2021/12/24 08:47:14;;;;;;;3.33;2.50;;;;;;;8.70;84.83;95879.53;5091845;28;20898;-66
2021/12/24 08:49:39;;;;;;;2.93;2.63;;;;;;;8.77;84.79;95880.19;5092212;28;20742;-66
2021/12/24 08:52:05;;;;;;;2.70;2.50;;;;;;;8.91;84.06;95871.00;5092352;28;20393;-70
2021/12/24 08:54:31;;;;;;;2.70;2.50;;;;;;;8.85;83.99;95874.56;5091010;28;20389;-65
2021/12/24 08:56:57;;;;;;;3.13;2.70;;;;;;;8.89;83.30;95870.44;5092356;28;20393;-64
2021/12/24 08:59:23;;;;;;;3.27;2.87;;;;;;;8.84;84.09;95886.06;5092323;28;20884;-64
2021/12/24 09:01:51;;;;;;;3.35;2.47;;;;;;;9.00;83.75;95897.53;5091820;28;20393;-65
2021/12/24 09:04:17;;;;;;;2.70;2.50;;;;;;;8.83;83.96;95891.50;5090478;28;20406;-64
2021/12/24 09:06:43;;;;;;;3.20;2.80;;;;;;;8.82;84.22;95882.06;5091436;28;20418;-65
2021/12/24 09:09:10;;;;;;;2.92;2.72;;;;;;;8.74;84.39;95878.84;5091418;28;20397;-65
2021/12/24 09:11:38;;;;;;;3.15;2.70;;;;;;;8.69;85.22;95883.97;5091954;28;20402;-64
2021/12/24 09:14:04;;;;;;;3.10;2.80;;;;;;;8.77;85.16;95883.59;5092035;28;20394;-65
2021/12/24 09:16:30;;;;;;;2.88;2.55;;;;;;;8.76;85.42;95884.63;5092092;28;20393;-65
2021/12/24 09:19:02;;;;;;;3.95;2.90;;;;;;;8.64;86.14;95883.09;5091868;28;20386;-65
2021/12/24 09:21:28;;;;;;;3.60;2.78;;;;;;;8.56;86.68;95883.50;5092057;28;20398;-65
2021/12/24 09:23:54;;;;;;;3.00;2.70;;;;;;;8.64;87.01;95876.06;5091989;28;20945;-71
2021/12/24 09:26:27;;;;;;;3.53;2.70;;;;;;;8.63;87.21;95884.94;5074296;28;20406;-65
2021/12/24 09:28:54;;;;;;;4.10;2.97;;;;;;;8.60;87.18;95889.81;5091891;28;20470;-65
2021/12/24 09:31:19;;;;;;;3.72;3.00;;;;;;;8.72;87.14;95880.09;5082178;28;20412;-65
2021/12/24 09:33:44;;;;;;;3.30;3.00;;;;;;;8.88;87.13;95883.75;5090327;28;20867;-70
2021/12/24 09:36:10;;;;;;;3.87;2.90;;;;;;;8.94;88.22;95873.13;5091360;28;20898;-65
2021/12/24 09:38:36;;;;;;;2.95;2.70;;;;;;;8.71;88.18;95879.31;5091656;28;20873;-64
2021/12/24 09:41:02;;;;;;;3.42;2.90;;;;;;;8.78;89.16;95879.16;5091009;28;20451;-65
2021/12/24 09:43:27;;;;;;;3.45;3.15;;;;;;;8.47;90.95;95877.09;5091287;28;20450;-66
2021/12/24 09:45:52;;;;;;;3.63;3.33;;;;;;;8.67;91.57;95877.41;5095381;28;20409;-66
2021/12/24 09:48:18;;;;;;;4.20;3.40;;;;;;;8.73;91.37;95877.25;5095506;28;20386;-65
2021/12/24 09:50:45;;;;;;;3.57;2.93;;;;;;;8.64;91.44;95875.25;5095007;28;20517;-65
2021/12/24 09:53:10;;;;;;;4.60;3.13;;;;;;;8.69;90.54;95870.16;5095560;28;20416;-65
2021/12/24 09:55:36;;;;;;;3.78;3.38;;;;;;;8.57;91.34;95864.19;5095243;28;20421;-65
2021/12/24 09:58:01;;;;;;;3.50;3.10;;;;;;;8.50;92.35;95868.75;5095150;28;20455;-65
2021/12/24 10:00:28;;;;;;;4.05;3.15;;;;;;;8.55;92.99;95864.41;5094022;28;20390;-66
2021/12/24 10:02:56;;;;;;;5.37;3.37;;;;;;;8.40;93.63;95864.16;5096810;28;20680;-66
2021/12/24 10:05:33;;;;;;;3.60;3.30;;;;;;;8.62;92.53;95859.06;5096537;28;20634;-66
2021/12/24 10:08:01;;;;;;;2.60;2.40;;;;;;;8.47;93.71;95861.41;5096410;28;20212;-66
2021/12/24 10:10:28;;;;;;;3.27;2.97;;;;;;;8.44;93.14;95857.44;5096779;28;20192;-66
2021/12/24 10:12:54;;;;;;;3.03;2.73;;;;;;;8.30;94.44;95853.56;5096243;28;20699;-67
2021/12/24 10:15:20;;;;;;;4.00;2.50;;;;;;;8.54;93.15;95857.59;5096265;28;20220;-65
2021/12/24 10:17:46;;;;;;;3.20;2.90;;;;;;;8.38;94.65;95857.59;5096446;28;20321;-64
2021/12/24 10:20:17;;;;;;;2.67;2.47;;;;;;;8.36;94.77;95857.81;5096154;28;20189;-64
2021/12/24 10:22:47;;;;;;;5.40;2.67;;;;;;;8.29;94.92;95865.00;5096288;28;20183;-66
2021/12/24 10:25:13;;;;;;;3.03;2.60;;;;;;;8.37;95.07;95862.00;5095685;28;20646;-66
2021/12/24 10:27:41;;;;;;;4.20;3.13;;;;;;;8.36;94.98;95865.66;5096083;28;20552;-65
2021/12/24 10:30:27;;;;;;;5.13;2.87;;;;;;;8.33;95.20;95856.47;5096132;28;20265;-67
2021/12/24 10:32:55;;;;;;;3.23;2.80;;;;;;;8.42;94.68;95853.47;5095043;28;20548;-67
2021/12/24 10:35:28;;;;;;;3.50;3.03;;;;;;;8.50;93.95;95850.50;5093644;28;20191;-66
2021/12/24 10:38:15;;;;;;;4.40;2.90;;;;;;;8.41;94.40;95831.03;5095352;28;20229;-66
2021/12/24 10:40:51;;;;;;;3.00;2.70;;;;;;;8.45;94.03;95838.16;5094942;28;20636;-66
2021/12/24 10:43:27;;;;;;;2.87;2.60;;;;;;;8.57;94.03;95828.44;5094648;28;20184;-67
2021/12/24 10:46:14;;;;;;;3.50;3.20;;;;;;;8.49;94.97;95831.41;5092982;28;20245;-66
2021/12/24 10:49:02;;;;;;;4.90;2.67;;;;;;;8.47;94.73;95824.88;5094665;28;20245;-66
2021/12/24 10:54:11;;;;;;;3.40;2.83;;;;;;;8.41;94.80;95817.97;5093667;28;20234;-64
2021/12/24 10:56:38;;;;;;;3.03;2.80;;;;;;;8.38;95.13;95823.66;5092945;28;20188;-65
2021/12/24 10:59:05;;;;;;;4.07;2.63;;;;;;;8.48;94.71;95819.38;5094485;28;20192;-65
2021/12/24 11:01:30;;;;;;;4.37;2.57;;;;;;;8.42;95.21;95817.72;5093982;28;20212;-65
2021/12/24 11:03:56;;;;;;;3.20;3.00;;;;;;;8.32;95.96;95817.53;5094363;28;20267;-64
2021/12/24 11:06:29;;;;;;;5.90;2.87;;;;;;;8.29;96.00;95807.56;5092397;28;20203;-65
2021/12/24 11:08:56;;;;;;;4.87;2.80;;;;;;;8.38;96.16;95806.16;5093020;28;20181;-65
2021/12/24 11:11:22;;;;;;;3.00;2.67;;;;;;;8.28;96.62;95808.59;5093462;28;20255;-66
2021/12/24 11:13:48;;;;;;;3.10;2.80;;;;;;;8.32;96.83;95796.66;5093717;28;20183;-65
2021/12/24 11:16:20;;;;;;;3.10;2.63;;;;;;;8.25;97.47;95802.00;5094010;28;20208;-63
2021/12/24 11:18:55;;;;;;;4.50;3.00;;;;;;;8.21;97.99;95803.50;5093697;28;20222;-70
2021/12/24 11:21:23;;;;;;;2.80;2.60;;;;;;;8.33;97.06;95813.91;5093806;28;20187;-64
2021/12/24 11:23:51;;;;;;;4.73;3.00;;;;;;;8.32;96.82;95810.50;5094528;28;20193;-64
2021/12/24 11:26:18;;;;;;;2.97;2.77;;;;;;;8.23;98.14;95805.88;5093564;28;20291;-64
2021/12/24 11:28:44;;;;;;;2.73;2.53;;;;;;;8.26;97.86;95800.97;5093351;28;20201;-64
2021/12/24 11:31:13;;;;;;;4.60;2.60;;;;;;;8.42;96.94;95798.63;5090186;28;20187;-64
2021/12/24 11:33:42;;;;;;;4.10;2.80;;;;;;;8.46;96.60;95803.19;5093071;28;20269;-66
2021/12/24 11:36:10;;;;;;;2.27;2.17;;;;;;;8.38;96.90;95800.16;5091373;28;20208;-65
2021/12/24 11:38:47;;;;;;;2.73;2.53;;;;;;;8.43;97.30;95797.63;5045378;28;1809457;-64
2021/12/24 11:41:15;;;;;;;2.70;2.30;;;;;;;8.42;97.40;95799.44;5099055;28;20184;-65
2021/12/24 11:43:43;;;;;;;2.73;2.50;;;;;;;8.43;97.28;95800.22;5113372;28;20172;-66
2021/12/24 11:46:11;;;;;;;2.73;2.53;;;;;;;8.53;96.92;95795.94;5114040;28;20207;-64
2021/12/24 11:48:37;;;;;;;3.30;2.77;;;;;;;8.34;97.86;95784.19;5114709;28;20199;-64
2021/12/24 11:51:08;;;;;;;2.80;2.23;;;;;;;8.36;98.25;95784.72;5113673;28;20180;-64
2021/12/24 11:53:35;;;;;;;3.40;2.60;;;;;;;8.47;97.67;95790.91;5113643;28;20633;-64
2021/12/24 11:56:10;;;;;;;2.50;2.30;;;;;;;8.67;97.02;95789.41;5113704;28;20172;-64
2021/12/24 11:58:53;;;;;;;3.77;2.63;;;;;;;8.65;96.78;95791.44;5095995;28;20238;-64
2021/12/24 12:01:24;;;;;;;4.30;2.33;;;;;;;8.68;96.59;95784.97;5113876;28;20217;-65
2021/12/24 12:03:52;;;;;;;2.03;1.93;;;;;;;8.71;96.87;95781.88;5113882;28;20172;-64
2021/12/24 12:06:23;;;;;;;2.23;1.90;;;;;;;8.70;96.62;95780.28;5112834;28;20675;-64
2021/12/24 12:08:56;;;;;;;2.37;2.20;;;;;;;8.83;96.57;95782.56;5114537;28;20316;-64
2021/12/24 12:11:27;;;;;;;2.60;2.37;;;;;;;8.91;96.30;95769.09;5111456;28;20580;-66
2021/12/24 12:14:07;;;;;;;3.27;2.20;;;;;;;9.09;94.75;95760.16;5113791;28;20290;-64
2021/12/24 12:16:39;;;;;;;3.67;2.10;;;;;;;8.99;95.29;95765.28;5114668;28;20172;-64
2021/12/24 12:19:23;;;;;;;4.60;2.60;;;;;;;9.01;95.27;95760.59;5113833;28;20184;-65
2021/12/24 12:25:09;;;;;;;2.10;2.00;;;;;;;8.95;95.54;95754.50;5099703;28;20196;-64
2021/12/24 12:27:58;;;;;;;3.57;2.10;;;;;;;9.07;95.59;95757.03;5095077;27;20742;-72
2021/12/24 12:30:29;;;;;;;2.63;2.13;;;;;;;8.92;95.65;95756.81;5111244;28;20194;-64
2021/12/24 12:33:08;;;;;;;4.10;2.40;;;;;;;8.93;95.37;95743.50;5112944;28;20172;-68
2021/12/24 12:35:55;;;;;;;2.23;1.93;;;;;;;8.90;96.05;95756.28;5114223;28;20183;-64
2021/12/24 12:38:38;;;;;;;2.03;1.90;;;;;;;9.06;95.53;95742.38;5113188;28;20295;-65
2021/12/24 12:41:31;;;;;;;1.70;1.60;;;;;;;9.11;95.37;95750.28;5113760;28;20186;-64
2021/12/24 12:43:58;;;;;;;2.30;1.83;;;;;;;9.25;94.59;95737.66;5114020;28;20172;-63
2021/12/24 12:46:30;;;;;;;1.90;1.80;;;;;;;9.21;94.13;95732.09;5113525;28;20203;-64
2021/12/24 12:48:59;;;;;;;2.23;2.10;;;;;;;9.20;94.97;95733.13;5113602;28;20667;-64
2021/12/24 12:51:57;;;;;;;2.93;2.23;;;;;;;9.19;94.74;95728.94;5112815;28;20505;-63
2021/12/24 12:54:33;;;;;;;1.70;1.60;;;;;;;9.01;95.22;95732.66;5113373;28;20259;-63
2021/12/24 12:57:08;;;;;;;1.90;1.77;;;;;;;9.19;94.26;95731.56;5113480;28;20202;-64
2021/12/24 12:59:33;;;;;;;1.80;1.70;;;;;;;9.18;95.24;95730.78;5113214;28;20187;-64
2021/12/24 13:01:58;;;;;;;2.57;1.70;;;;;;;9.15;94.84;95738.28;5112891;28;20183;-64
2021/12/24 13:04:24;;;;;;;2.30;1.63;;;;;;;9.04;95.63;95739.19;5113199;28;20179;-65
2021/12/24 13:06:52;;;;;;;1.50;1.40;;;;;;;8.96;95.96;95729.97;5112679;28;20663;-64
2021/12/24 13:09:32;;;;;;;3.93;1.70;;;;;;;9.21;95.25;95723.47;5113372;28;20186;-64
2021/12/24 13:12:00;;;;;;;1.60;1.50;;;;;;;9.29;94.35;95723.84;5112579;28;20179;-64
2021/12/24 13:14:29;;;;;;;1.50;1.30;;;;;;;9.35;94.07;95728.09;5113048;28;20194;-65
2021/12/24 13:22:28;;;;;;;1.50;1.40;;;;;;;9.18;94.31;95724.75;5106488;28;20176;-64
2021/12/24 13:25:13;;;;;;;1.77;1.63;;;;;;;9.21;93.81;95720.84;5112848;28;20643;-69
2021/12/24 13:27:44;;;;;;;;;;;;;;;9.01;95.03;95716.97;5110006;28;20034;-65
2021/12/24 13:30:11;;;;;;;;;;;;;;;9.05;95.32;95712.03;5095117;28;19920;-64
2021/12/24 13:32:38;;;;;;;;;;;;;;;8.98;96.39;95706.97;5113442;28;19911;-67
2021/12/24 13:35:03;;;;;;;;;;;;;;;8.97;96.67;95707.25;5107701;28;19959;-67
2021/12/24 13:37:32;;;;;;;;;;;;;;;8.88;97.13;95703.44;5112772;28;20019;-64